sensor_id;sensor_type;location;lat;lon;timestamp;pressure;altitude;pressure_sealevel;temperature;humidity
51460;BME280;37534;39.772;2.718;2024-02-04T00:00:25;102904.47;;;6.77;100.00
51460;BME280;37534;39.772;2.718;2024-02-04T00:02:50;102916.25;;;6.69;100.00
51460;BME280;37534;39.772;2.718;2024-02-04T00:05:16;102909.22;;;6.61;100.00
51460;BME280;37534;39.772;2.718;2024-02-04T00:07:43;102893.38;;;6.44;100.00
51460;BME280;37534;39.772;2.718;2024-02-04T00:10:09;102903.78;;;6.49;100.00
51460;BME280;37534;39.772;2.718;2024-02-04T00:12:34;102901.09;;;6.44;100.00
51460;BME280;37534;39.772;2.718;2024-02-04T00:15:00;102896.84;;;6.45;100.00
51460;BME280;37534;39.772;2.718;2024-02-04T00:17:25;102894.88;;;6.68;100.00
51460;BME280;37534;39.772;2.718;2024-02-04T00:19:56;102896.22;;;6.55;100.00
51460;BME280;37534;39.772;2.718;2024-02-04T00:22:22;102896.91;;;6.48;100.00
51460;BME280;37534;39.772;2.718;2024-02-04T00:24:47;102899.41;;;6.46;100.00
51460;BME280;37534;39.772;2.718;2024-02-04T00:27:13;102893.44;;;6.46;100.00
51460;BME280;37534;39.772;2.718;2024-02-04T00:29:38;102892.72;;;6.52;100.00
51460;BME280;37534;39.772;2.718;2024-02-04T00:32:04;102886.50;;;6.42;100.00
51460;BME280;37534;39.772;2.718;2024-02-04T00:34:29;102886.31;;;6.36;100.00
51460;BME280;37534;39.772;2.718;2024-02-04T00:36:55;102894.88;;;6.35;100.00
51460;BME280;37534;39.772;2.718;2024-02-04T00:39:20;102873.28;;;6.26;100.00
51460;BME280;37534;39.772;2.718;2024-02-04T00:41:46;102874.72;;;6.50;100.00
51460;BME280;37534;39.772;2.718;2024-02-04T00:44:11;102871.56;;;6.60;100.00
51460;BME280;37534;39.772;2.718;2024-02-04T00:46:37;102880.75;;;6.51;100.00
51460;BME280;37534;39.772;2.718;2024-02-04T00:49:02;102868.28;;;6.31;100.00
51460;BME280;37534;39.772;2.718;2024-02-04T00:51:28;102880.81;;;6.20;100.00
51460;BME280;37534;39.772;2.718;2024-02-04T00:53:53;102868.91;;;6.22;100.00
51460;BME280;37534;39.772;2.718;2024-02-04T00:56:19;102865.31;;;6.49;100.00
51460;BME280;37534;39.772;2.718;2024-02-04T00:58:45;102871.78;;;6.70;100.00
51460;BME280;37534;39.772;2.718;2024-02-04T01:01:10;102861.53;;;6.70;100.00
51460;BME280;37534;39.772;2.718;2024-02-04T01:03:36;102864.56;;;6.53;100.00
51460;BME280;37534;39.772;2.718;2024-02-04T01:06:01;102859.06;;;6.38;100.00
51460;BME280;37534;39.772;2.718;2024-02-04T01:08:27;102848.47;;;6.25;100.00
51460;BME280;37534;39.772;2.718;2024-02-04T01:10:52;102854.41;;;6.24;100.00
51460;BME280;37534;39.772;2.718;2024-02-04T01:13:18;102840.53;;;6.16;100.00
51460;BME280;37534;39.772;2.718;2024-02-04T01:15:44;102851.00;;;6.24;100.00
51460;BME280;37534;39.772;2.718;2024-02-04T01:18:09;102838.81;;;6.15;100.00
51460;BME280;37534;39.772;2.718;2024-02-04T01:20:35;102857.69;;;6.19;100.00
51460;BME280;37534;39.772;2.718;2024-02-04T01:23:00;102852.00;;;6.31;100.00
51460;BME280;37534;39.772;2.718;2024-02-04T01:25:26;102841.91;;;6.37;100.00
51460;BME280;37534;39.772;2.718;2024-02-04T01:27:51;102857.13;;;6.31;100.00
51460;BME280;37534;39.772;2.718;2024-02-04T01:30:17;102857.69;;;6.19;100.00
51460;BME280;37534;39.772;2.718;2024-02-04T01:32:42;102845.50;;;6.10;100.00
51460;BME280;37534;39.772;2.718;2024-02-04T01:35:08;102859.97;;;6.08;100.00
51460;BME280;37534;39.772;2.718;2024-02-04T01:37:33;102859.22;;;6.12;100.00
51460;BME280;37534;39.772;2.718;2024-02-04T01:39:59;102856.31;;;6.32;100.00
51460;BME280;37534;39.772;2.718;2024-02-04T01:42:24;102853.94;;;6.39;100.00
51460;BME280;37534;39.772;2.718;2024-02-04T01:44:50;102842.50;;;6.26;100.00
51460;BME280;37534;39.772;2.718;2024-02-04T01:47:16;102838.47;;;6.35;100.00
51460;BME280;37534;39.772;2.718;2024-02-04T01:49:43;102838.03;;;6.19;100.00
51460;BME280;37534;39.772;2.718;2024-02-04T01:52:10;102836.97;;;6.11;100.00
51460;BME280;37534;39.772;2.718;2024-02-04T01:54:39;102841.03;;;6.03;100.00
51460;BME280;37534;39.772;2.718;2024-02-04T01:57:06;102829.63;;;5.93;100.00
51460;BME280;37534;39.772;2.718;2024-02-04T01:59:31;102850.28;;;5.98;100.00
51460;BME280;37534;39.772;2.718;2024-02-04T02:02:00;102848.69;;;6.01;100.00
51460;BME280;37534;39.772;2.718;2024-02-04T02:04:26;102844.25;;;5.96;100.00
51460;BME280;37534;39.772;2.718;2024-02-04T02:06:53;102841.69;;;5.96;100.00
51460;BME280;37534;39.772;2.718;2024-02-04T02:09:19;102841.13;;;6.06;100.00
51460;BME280;37534;39.772;2.718;2024-02-04T02:11:47;102844.59;;;6.08;100.00
51460;BME280;37534;39.772;2.718;2024-02-04T02:14:21;102846.94;;;6.00;100.00
51460;BME280;37534;39.772;2.718;2024-02-04T02:16:48;102844.13;;;5.93;100.00
51460;BME280;37534;39.772;2.718;2024-02-04T02:19:40;102837.63;;;6.04;100.00
51460;BME280;37534;39.772;2.718;2024-02-04T02:25:19;102839.41;;;5.76;100.00
51460;BME280;37534;39.772;2.718;2024-02-04T02:27:49;102840.31;;;5.78;100.00
51460;BME280;37534;39.772;2.718;2024-02-04T02:30:16;102836.97;;;5.79;100.00
51460;BME280;37534;39.772;2.718;2024-02-04T02:32:43;102836.97;;;5.81;100.00
51460;BME280;37534;39.772;2.718;2024-02-04T02:35:11;102845.03;;;5.95;100.00
51460;BME280;37534;39.772;2.718;2024-02-04T02:40:53;102840.25;;;6.05;100.00
51460;BME280;37534;39.772;2.718;2024-02-04T02:43:20;102832.94;;;5.89;100.00
51460;BME280;37534;39.772;2.718;2024-02-04T02:45:47;102818.94;;;5.76;100.00
51460;BME280;37534;39.772;2.718;2024-02-04T02:48:13;102829.94;;;5.74;100.00
51460;BME280;37534;39.772;2.718;2024-02-04T02:50:39;102830.88;;;5.76;100.00
51460;BME280;37534;39.772;2.718;2024-02-04T02:53:05;102818.13;;;5.79;100.00
51460;BME280;37534;39.772;2.718;2024-02-04T02:55:30;102827.56;;;5.80;100.00
51460;BME280;37534;39.772;2.718;2024-02-04T02:57:56;102831.88;;;5.82;100.00
51460;BME280;37534;39.772;2.718;2024-02-04T03:00:21;102827.28;;;5.69;100.00
51460;BME280;37534;39.772;2.718;2024-02-04T03:02:47;102819.25;;;5.57;100.00
51460;BME280;37534;39.772;2.718;2024-02-04T03:05:15;102809.84;;;5.57;100.00
51460;BME280;37534;39.772;2.718;2024-02-04T03:07:40;102807.25;;;5.56;100.00
51460;BME280;37534;39.772;2.718;2024-02-04T03:10:06;102817.28;;;5.78;100.00
51460;BME280;37534;39.772;2.718;2024-02-04T03:12:31;102803.03;;;5.58;100.00
51460;BME280;37534;39.772;2.718;2024-02-04T03:14:57;102804.47;;;5.48;100.00
51460;BME280;37534;39.772;2.718;2024-02-04T03:17:22;102802.56;;;5.41;100.00
51460;BME280;37534;39.772;2.718;2024-02-04T03:19:49;102801.69;;;5.40;100.00
51460;BME280;37534;39.772;2.718;2024-02-04T03:22:17;102788.09;;;5.43;100.00
51460;BME280;37534;39.772;2.718;2024-02-04T03:24:43;102803.47;;;5.43;100.00
51460;BME280;37534;39.772;2.718;2024-02-04T03:27:08;102806.81;;;5.40;100.00
51460;BME280;37534;39.772;2.718;2024-02-04T03:29:34;102796.03;;;5.52;100.00
51460;BME280;37534;39.772;2.718;2024-02-04T03:31:59;102799.69;;;5.60;100.00
51460;BME280;37534;39.772;2.718;2024-02-04T03:34:25;102806.28;;;5.52;100.00
51460;BME280;37534;39.772;2.718;2024-02-04T03:36:50;102811.84;;;5.37;100.00
51460;BME280;37534;39.772;2.718;2024-02-04T03:39:16;102810.06;;;5.34;100.00
51460;BME280;37534;39.772;2.718;2024-02-04T03:41:41;102796.44;;;5.36;100.00
51460;BME280;37534;39.772;2.718;2024-02-04T03:44:07;102812.47;;;5.59;100.00
51460;BME280;37534;39.772;2.718;2024-02-04T03:46:33;102790.41;;;5.64;100.00
51460;BME280;37534;39.772;2.718;2024-02-04T03:48:58;102810.16;;;5.68;100.00
51460;BME280;37534;39.772;2.718;2024-02-04T03:51:24;102800.81;;;5.70;100.00
51460;BME280;37534;39.772;2.718;2024-02-04T03:53:50;102795.88;;;5.76;100.00
51460;BME280;37534;39.772;2.718;2024-02-04T03:56:16;102781.63;;;5.56;100.00
51460;BME280;37534;39.772;2.718;2024-02-04T03:58:42;102800.47;;;5.58;100.00
51460;BME280;37534;39.772;2.718;2024-02-04T04:01:11;102791.53;;;5.43;100.00
51460;BME280;37534;39.772;2.718;2024-02-04T04:03:39;102806.22;;;5.49;100.00
51460;BME280;37534;39.772;2.718;2024-02-04T04:06:05;102806.81;;;5.40;100.00
51460;BME280;37534;39.772;2.718;2024-02-04T04:08:31;102810.09;;;5.36;100.00
51460;BME280;37534;39.772;2.718;2024-02-04T04:10:57;102796.13;;;5.25;100.00
51460;BME280;37534;39.772;2.718;2024-02-04T04:13:22;102809.03;;;5.28;100.00
51460;BME280;37534;39.772;2.718;2024-02-04T04:15:48;102800.38;;;5.24;100.00
51460;BME280;37534;39.772;2.718;2024-02-04T04:18:13;102789.00;;;5.14;100.00
51460;BME280;37534;39.772;2.718;2024-02-04T04:20:39;102786.94;;;5.31;100.00
51460;BME280;37534;39.772;2.718;2024-02-04T04:23:05;102793.72;;;5.31;100.00
51460;BME280;37534;39.772;2.718;2024-02-04T04:25:30;102782.59;;;5.29;100.00
51460;BME280;37534;39.772;2.718;2024-02-04T04:27:56;102799.44;;;5.21;100.00
51460;BME280;37534;39.772;2.718;2024-02-04T04:30:23;102792.66;;;5.23;100.00
51460;BME280;37534;39.772;2.718;2024-02-04T04:32:49;102785.63;;;5.16;100.00
51460;BME280;37534;39.772;2.718;2024-02-04T04:35:14;102796.72;;;5.16;100.00
51460;BME280;37534;39.772;2.718;2024-02-04T04:37:40;102777.44;;;4.99;100.00
51460;BME280;37534;39.772;2.718;2024-02-04T04:40:06;102780.81;;;4.98;100.00
51460;BME280;37534;39.772;2.718;2024-02-04T04:42:31;102775.19;;;5.09;100.00
51460;BME280;37534;39.772;2.718;2024-02-04T04:44:57;102774.44;;;5.12;100.00
51460;BME280;37534;39.772;2.718;2024-02-04T04:47:23;102785.09;;;5.27;100.00
51460;BME280;37534;39.772;2.718;2024-02-04T04:49:48;102777.41;;;5.26;100.00
51460;BME280;37534;39.772;2.718;2024-02-04T04:52:14;102764.97;;;5.09;100.00
51460;BME280;37534;39.772;2.718;2024-02-04T04:54:39;102782.88;;;5.09;100.00
51460;BME280;37534;39.772;2.718;2024-02-04T04:57:05;102757.22;;;5.08;100.00
51460;BME280;37534;39.772;2.718;2024-02-04T04:59:31;102768.09;;;5.01;100.00
51460;BME280;37534;39.772;2.718;2024-02-04T05:01:56;102768.25;;;5.05;100.00
51460;BME280;37534;39.772;2.718;2024-02-04T05:04:22;102753.41;;;4.93;100.00
51460;BME280;37534;39.772;2.718;2024-02-04T05:06:51;102772.50;;;5.05;100.00
51460;BME280;37534;39.772;2.718;2024-02-04T05:09:16;102761.91;;;4.92;100.00
51460;BME280;37534;39.772;2.718;2024-02-04T05:11:42;102772.38;;;5.00;100.00
51460;BME280;37534;39.772;2.718;2024-02-04T05:14:07;102765.97;;;4.86;100.00
51460;BME280;37534;39.772;2.718;2024-02-04T05:16:33;102777.00;;;4.85;100.00
51460;BME280;37534;39.772;2.718;2024-02-04T05:18:59;102765.38;;;4.94;100.00
51460;BME280;37534;39.772;2.718;2024-02-04T05:21:24;102779.44;;;5.09;100.00
51460;BME280;37534;39.772;2.718;2024-02-04T05:23:50;102766.13;;;4.92;100.00
51460;BME280;37534;39.772;2.718;2024-02-04T05:26:17;102778.66;;;4.83;100.00
51460;BME280;37534;39.772;2.718;2024-02-04T05:28:43;102777.84;;;4.84;100.00
51460;BME280;37534;39.772;2.718;2024-02-04T05:31:09;102779.06;;;4.97;100.00
51460;BME280;37534;39.772;2.718;2024-02-04T05:33:35;102786.16;;;5.05;100.00
51460;BME280;37534;39.772;2.718;2024-02-04T05:36:00;102790.28;;;5.00;100.00
51460;BME280;37534;39.772;2.718;2024-02-04T05:38:25;102780.56;;;4.90;100.00
51460;BME280;37534;39.772;2.718;2024-02-04T05:40:51;102781.09;;;4.78;100.00
51460;BME280;37534;39.772;2.718;2024-02-04T05:43:16;102782.56;;;4.71;100.00
51460;BME280;37534;39.772;2.718;2024-02-04T05:45:42;102791.16;;;4.73;100.00
51460;BME280;37534;39.772;2.718;2024-02-04T05:48:08;102795.88;;;4.88;100.00
51460;BME280;37534;39.772;2.718;2024-02-04T05:50:34;102784.59;;;4.82;100.00
51460;BME280;37534;39.772;2.718;2024-02-04T05:53:00;102788.06;;;4.84;100.00
51460;BME280;37534;39.772;2.718;2024-02-04T05:55:25;102788.81;;;4.81;100.00
51460;BME280;37534;39.772;2.718;2024-02-04T05:57:51;102803.47;;;4.85;100.00
51460;BME280;37534;39.772;2.718;2024-02-04T06:00:16;102799.78;;;4.77;100.00
51460;BME280;37534;39.772;2.718;2024-02-04T06:02:43;102785.34;;;4.79;100.00
51460;BME280;37534;39.772;2.718;2024-02-04T06:05:09;102797.91;;;4.71;100.00
51460;BME280;37534;39.772;2.718;2024-02-04T06:07:35;102793.53;;;4.67;100.00
51460;BME280;37534;39.772;2.718;2024-02-04T06:10:00;102803.22;;;4.78;100.00
51460;BME280;37534;39.772;2.718;2024-02-04T06:12:29;102801.66;;;4.83;100.00
51460;BME280;37534;39.772;2.718;2024-02-04T06:14:54;102798.53;;;4.91;100.00
51460;BME280;37534;39.772;2.718;2024-02-04T06:17:20;102794.16;;;4.87;100.00
51460;BME280;37534;39.772;2.718;2024-02-04T06:19:45;102799.38;;;4.90;100.00
51460;BME280;37534;39.772;2.718;2024-02-04T06:22:11;102802.25;;;4.74;100.00
51460;BME280;37534;39.772;2.718;2024-02-04T06:24:36;102793.44;;;4.64;100.00
51460;BME280;37534;39.772;2.718;2024-02-04T06:27:04;102789.69;;;4.54;100.00
51460;BME280;37534;39.772;2.718;2024-02-04T06:29:30;102792.13;;;4.50;100.00
51460;BME280;37534;39.772;2.718;2024-02-04T06:31:55;102792.13;;;4.50;100.00
51460;BME280;37534;39.772;2.718;2024-02-04T06:34:21;102778.66;;;4.55;100.00
51460;BME280;37534;39.772;2.718;2024-02-04T06:36:47;102797.63;;;4.62;100.00
51460;BME280;37534;39.772;2.718;2024-02-04T06:39:13;102789.34;;;4.69;100.00
51460;BME280;37534;39.772;2.718;2024-02-04T06:41:38;102791.63;;;4.62;100.00
51460;BME280;37534;39.772;2.718;2024-02-04T06:44:04;102779.78;;;4.64;100.00
51460;BME280;37534;39.772;2.718;2024-02-04T06:46:30;102796.09;;;4.67;100.00
51460;BME280;37534;39.772;2.718;2024-02-04T06:48:55;102792.41;;;4.59;100.00
51460;BME280;37534;39.772;2.718;2024-02-04T06:51:21;102787.00;;;4.50;100.00
51460;BME280;37534;39.772;2.718;2024-02-04T06:53:47;102795.69;;;4.55;100.00
51460;BME280;37534;39.772;2.718;2024-02-04T06:56:13;102787.88;;;4.50;100.00
51460;BME280;37534;39.772;2.718;2024-02-04T06:58:39;102797.91;;;4.71;100.00
51460;BME280;37534;39.772;2.718;2024-02-04T07:01:05;102795.47;;;4.74;100.00
51460;BME280;37534;39.772;2.718;2024-02-04T07:03:30;102792.91;;;4.74;100.00
51460;BME280;37534;39.772;2.718;2024-02-04T07:05:57;102801.16;;;4.66;100.00
51460;BME280;37534;39.772;2.718;2024-02-04T07:08:23;102780.53;;;4.61;100.00
51460;BME280;37534;39.772;2.718;2024-02-04T07:10:49;102809.88;;;4.72;100.00
51460;BME280;37534;39.772;2.718;2024-02-04T07:13:14;102822.56;;;4.69;100.00
51460;BME280;37534;39.772;2.718;2024-02-04T07:15:40;102824.16;;;4.66;100.00
51460;BME280;37534;39.772;2.718;2024-02-04T07:18:06;102820.31;;;4.79;100.00
51460;BME280;37534;39.772;2.718;2024-02-04T07:20:31;102813.53;;;4.81;100.00
51460;BME280;37534;39.772;2.718;2024-02-04T07:22:57;102828.72;;;4.74;100.00
51460;BME280;37534;39.772;2.718;2024-02-04T07:25:22;102824.28;;;4.70;100.00
51460;BME280;37534;39.772;2.718;2024-02-04T07:27:48;102833.94;;;4.79;100.00
51460;BME280;37534;39.772;2.718;2024-02-04T07:30:14;102826.38;;;4.82;100.00
51460;BME280;37534;39.772;2.718;2024-02-04T07:32:39;102830.19;;;4.95;100.00
51460;BME280;37534;39.772;2.718;2024-02-04T07:35:05;102824.06;;;4.90;100.00
51460;BME280;37534;39.772;2.718;2024-02-04T07:37:31;102819.72;;;4.87;100.00
51460;BME280;37534;39.772;2.718;2024-02-04T07:39:57;102822.97;;;4.82;100.00
51460;BME280;37534;39.772;2.718;2024-02-04T07:42:22;102831.44;;;4.81;100.00
51460;BME280;37534;39.772;2.718;2024-02-04T07:44:48;102830.88;;;4.89;100.00
51460;BME280;37534;39.772;2.718;2024-02-04T07:47:13;102837.22;;;5.02;100.00
51460;BME280;37534;39.772;2.718;2024-02-04T07:49:39;102842.78;;;5.16;100.00
51460;BME280;37534;39.772;2.718;2024-02-04T07:52:04;102838.44;;;5.13;100.00
51460;BME280;37534;39.772;2.718;2024-02-04T07:54:30;102836.81;;;5.16;100.00
51460;BME280;37534;39.772;2.718;2024-02-04T07:56:56;102840.44;;;5.24;100.00
51460;BME280;37534;39.772;2.718;2024-02-04T07:59:21;102846.34;;;5.21;100.00
51460;BME280;37534;39.772;2.718;2024-02-04T08:01:47;102864.00;;;5.41;100.00
51460;BME280;37534;39.772;2.718;2024-02-04T08:04:12;102859.66;;;5.38;100.00
51460;BME280;37534;39.772;2.718;2024-02-04T08:06:38;102844.66;;;5.22;100.00
51460;BME280;37534;39.772;2.718;2024-02-04T08:09:04;102863.94;;;5.39;100.00
51460;BME280;37534;39.772;2.718;2024-02-04T08:11:30;102865.19;;;5.52;100.00
51460;BME280;37534;39.772;2.718;2024-02-04T08:13:55;102871.53;;;5.65;100.00
51460;BME280;37534;39.772;2.718;2024-02-04T08:16:21;102868.19;;;5.67;100.00
51460;BME280;37534;39.772;2.718;2024-02-04T08:18:47;102863.84;;;5.65;100.00
51460;BME280;37534;39.772;2.718;2024-02-04T08:21:12;102873.00;;;5.57;100.00
51460;BME280;37534;39.772;2.718;2024-02-04T08:23:38;102871.22;;;5.54;100.00
51460;BME280;37534;39.772;2.718;2024-02-04T08:26:05;102865.94;;;5.78;100.00
51460;BME280;37534;39.772;2.718;2024-02-04T08:28:30;102872.88;;;5.82;100.00
51460;BME280;37534;39.772;2.718;2024-02-04T08:30:56;102879.66;;;5.80;100.00
51460;BME280;37534;39.772;2.718;2024-02-04T08:33:22;102879.19;;;5.94;100.00
51460;BME280;37534;39.772;2.718;2024-02-04T08:35:48;102895.66;;;6.02;100.00
51460;BME280;37534;39.772;2.718;2024-02-04T08:38:14;102875.09;;;5.99;100.00
51460;BME280;37534;39.772;2.718;2024-02-04T08:40:39;102880.16;;;6.27;100.00
51460;BME280;37534;39.772;2.718;2024-02-04T08:43:05;102891.69;;;7.92;100.00
51460;BME280;37534;39.772;2.718;2024-02-04T08:45:30;102890.59;;;9.98;100.00
51460;BME280;37534;39.772;2.718;2024-02-04T08:47:56;102896.47;;;12.10;100.00
51460;BME280;37534;39.772;2.718;2024-02-04T08:50:22;102894.16;;;14.49;100.00
51460;BME280;37534;39.772;2.718;2024-02-04T08:52:47;102890.56;;;16.75;100.00
51460;BME280;37534;39.772;2.718;2024-02-04T08:55:13;102903.28;;;18.62;94.98
51460;BME280;37534;39.772;2.718;2024-02-04T08:57:38;102906.69;;;20.21;78.99
51460;BME280;37534;39.772;2.718;2024-02-04T09:00:05;102894.41;;;21.74;70.05
51460;BME280;37534;39.772;2.718;2024-02-04T09:02:34;102879.88;;;21.87;56.09
51460;BME280;37534;39.772;2.718;2024-02-04T09:05:00;102890.25;;;21.68;55.05
51460;BME280;37534;39.772;2.718;2024-02-04T09:07:26;102883.16;;;21.70;54.34
51460;BME280;37534;39.772;2.718;2024-02-04T09:09:52;102890.88;;;22.82;52.90
51460;BME280;37534;39.772;2.718;2024-02-04T09:12:17;102885.31;;;23.67;49.33
51460;BME280;37534;39.772;2.718;2024-02-04T09:14:46;102882.47;;;24.45;49.31
51460;BME280;37534;39.772;2.718;2024-02-04T09:17:11;102878.38;;;25.41;45.46
51460;BME280;37534;39.772;2.718;2024-02-04T09:19:38;102870.44;;;26.05;43.35
51460;BME280;37534;39.772;2.718;2024-02-04T09:22:04;102870.84;;;25.81;41.49
51460;BME280;37534;39.772;2.718;2024-02-04T09:24:30;102861.25;;;25.48;42.94
51460;BME280;37534;39.772;2.718;2024-02-04T09:26:55;102879.19;;;26.21;42.59
51460;BME280;37534;39.772;2.718;2024-02-04T09:29:21;102873.16;;;27.36;40.56
51460;BME280;37534;39.772;2.718;2024-02-04T09:31:46;102877.06;;;27.16;40.06
51460;BME280;37534;39.772;2.718;2024-02-04T09:34:12;102885.88;;;27.72;38.46
51460;BME280;37534;39.772;2.718;2024-02-04T09:36:37;102890.13;;;28.42;38.04
51460;BME280;37534;39.772;2.718;2024-02-04T09:39:03;102880.81;;;29.26;37.65
51460;BME280;37534;39.772;2.718;2024-02-04T09:41:29;102888.91;;;29.86;35.24
51460;BME280;37534;39.772;2.718;2024-02-04T09:43:55;102888.16;;;29.23;34.42
51460;BME280;37534;39.772;2.718;2024-02-04T09:46:21;102877.38;;;29.24;35.04
51460;BME280;37534;39.772;2.718;2024-02-04T09:48:49;102896.94;;;30.32;34.92
51460;BME280;37534;39.772;2.718;2024-02-04T09:51:15;102891.66;;;29.10;35.65
51460;BME280;37534;39.772;2.718;2024-02-04T09:53:43;102896.56;;;29.16;34.92
51460;BME280;37534;39.772;2.718;2024-02-04T09:56:11;102894.25;;;30.57;32.22
51460;BME280;37534;39.772;2.718;2024-02-04T09:58:37;102899.13;;;28.92;34.18
51460;BME280;37534;39.772;2.718;2024-02-04T10:01:06;102908.34;;;28.61;34.77
51460;BME280;37534;39.772;2.718;2024-02-04T10:03:35;102897.53;;;30.01;34.83
51460;BME280;37534;39.772;2.718;2024-02-04T10:06:00;102897.06;;;29.95;34.30
51460;BME280;37534;39.772;2.718;2024-02-04T10:08:26;102896.22;;;30.77;33.86
51460;BME280;37534;39.772;2.718;2024-02-04T10:10:54;102903.53;;;32.08;31.88
51460;BME280;37534;39.772;2.718;2024-02-04T10:13:20;102891.56;;;32.65;30.67
51460;BME280;37534;39.772;2.718;2024-02-04T10:15:47;102890.56;;;31.71;30.01
51460;BME280;37534;39.772;2.718;2024-02-04T10:18:13;102889.16;;;31.44;30.74
51460;BME280;37534;39.772;2.718;2024-02-04T10:20:39;102896.84;;;32.55;28.90
51460;BME280;37534;39.772;2.718;2024-02-04T10:23:04;102887.44;;;32.92;29.54
51460;BME280;37534;39.772;2.718;2024-02-04T10:25:30;102893.63;;;32.40;28.98
51460;BME280;37534;39.772;2.718;2024-02-04T10:27:55;102905.22;;;32.51;28.84
51460;BME280;37534;39.772;2.718;2024-02-04T10:30:22;102884.00;;;33.01;28.39
51460;BME280;37534;39.772;2.718;2024-02-04T10:32:51;102891.41;;;32.46;28.38
51460;BME280;37534;39.772;2.718;2024-02-04T10:35:17;102892.94;;;33.31;28.70
51460;BME280;37534;39.772;2.718;2024-02-04T10:37:47;102883.72;;;34.13;27.47
51460;BME280;37534;39.772;2.718;2024-02-04T10:40:13;102893.78;;;34.58;26.89
51460;BME280;37534;39.772;2.718;2024-02-04T10:42:42;102883.44;;;33.97;26.77
51460;BME280;37534;39.772;2.718;2024-02-04T10:45:09;102898.91;;;33.64;27.29
51460;BME280;37534;39.772;2.718;2024-02-04T10:47:37;102907.25;;;35.41;26.21
51460;BME280;37534;39.772;2.718;2024-02-04T10:50:04;102905.47;;;35.96;25.68
51460;BME280;37534;39.772;2.718;2024-02-04T10:52:35;102903.03;;;36.63;24.56
51460;BME280;37534;39.772;2.718;2024-02-04T10:55:02;102901.84;;;36.58;23.84
51460;BME280;37534;39.772;2.718;2024-02-04T10:57:29;102899.38;;;36.38;23.89
51460;BME280;37534;39.772;2.718;2024-02-04T10:59:56;102889.38;;;36.48;23.90
51460;BME280;37534;39.772;2.718;2024-02-04T11:02:23;102879.41;;;35.42;24.08
51460;BME280;37534;39.772;2.718;2024-02-04T11:04:49;102888.78;;;33.97;25.92
51460;BME280;37534;39.772;2.718;2024-02-04T11:07:17;102884.72;;;34.02;25.77
51460;BME280;37534;39.772;2.718;2024-02-04T11:09:45;102877.81;;;34.00;26.70
51460;BME280;37534;39.772;2.718;2024-02-04T11:12:16;102889.81;;;33.76;26.47
51460;BME280;37534;39.772;2.718;2024-02-04T11:14:46;102875.91;;;32.91;27.36
51460;BME280;37534;39.772;2.718;2024-02-04T11:20:33;102874.28;;;32.69;27.38
51460;BME280;37534;39.772;2.718;2024-02-04T11:26:06;102864.13;;;32.94;27.63
51460;BME280;37534;39.772;2.718;2024-02-04T11:28:33;102847.19;;;32.84;27.32
51460;BME280;37534;39.772;2.718;2024-02-04T11:30:58;102854.56;;;33.90;26.48
51460;BME280;37534;39.772;2.718;2024-02-04T11:33:24;102840.88;;;33.35;26.49
51460;BME280;37534;39.772;2.718;2024-02-04T11:36:00;102843.44;;;33.85;26.86
51460;BME280;37534;39.772;2.718;2024-02-04T11:38:37;102840.19;;;34.58;26.21
51460;BME280;37534;39.772;2.718;2024-02-04T11:41:03;102847.66;;;33.78;26.70
51460;BME280;37534;39.772;2.718;2024-02-04T11:43:32;102835.22;;;33.38;26.69
51460;BME280;37534;39.772;2.718;2024-02-04T11:45:58;102828.44;;;34.32;26.21
51460;BME280;37534;39.772;2.718;2024-02-04T11:48:33;102820.72;;;34.56;25.80
51460;BME280;37534;39.772;2.718;2024-02-04T11:50:59;102823.06;;;34.79;25.50
51460;BME280;37534;39.772;2.718;2024-02-04T11:53:26;102812.50;;;35.41;25.18
51460;BME280;37534;39.772;2.718;2024-02-04T11:55:57;102808.97;;;35.76;25.32
51460;BME280;37534;39.772;2.718;2024-02-04T11:58:25;102811.59;;;34.77;25.81
51460;BME280;37534;39.772;2.718;2024-02-04T12:00:52;102793.44;;;35.16;26.00
51460;BME280;37534;39.772;2.718;2024-02-04T12:03:29;102806.94;;;32.45;28.50
51460;BME280;37534;39.772;2.718;2024-02-04T12:05:55;102809.38;;;34.35;27.71
51460;BME280;37534;39.772;2.718;2024-02-04T12:08:20;102810.41;;;35.53;26.94
51460;BME280;37534;39.772;2.718;2024-02-04T12:10:47;102810.81;;;36.28;26.15
51460;BME280;37534;39.772;2.718;2024-02-04T12:13:13;102814.50;;;36.62;25.69
51460;BME280;37534;39.772;2.718;2024-02-04T12:15:40;102803.78;;;37.37;25.17
51460;BME280;37534;39.772;2.718;2024-02-04T12:18:09;102804.59;;;37.38;25.20
51460;BME280;37534;39.772;2.718;2024-02-04T12:20:36;102794.38;;;37.58;25.50
51460;BME280;37534;39.772;2.718;2024-02-04T12:23:03;102796.88;;;37.26;26.35
51460;BME280;37534;39.772;2.718;2024-02-04T12:25:30;102793.50;;;37.24;26.28
51460;BME280;37534;39.772;2.718;2024-02-04T12:27:58;102789.47;;;37.45;26.02
51460;BME280;37534;39.772;2.718;2024-02-04T12:30:24;102788.28;;;37.39;26.12
51460;BME280;37534;39.772;2.718;2024-02-04T12:33:00;102784.44;;;37.75;25.84
51460;BME280;37534;39.772;2.718;2024-02-04T12:35:26;102785.75;;;37.62;26.08
51460;BME280;37534;39.772;2.718;2024-02-04T12:37:57;102781.03;;;37.97;26.10
51460;BME280;37534;39.772;2.718;2024-02-04T12:40:30;102782.91;;;37.56;26.09
51460;BME280;37534;39.772;2.718;2024-02-04T12:42:59;102780.88;;;37.50;25.96
51460;BME280;37534;39.772;2.718;2024-02-04T12:45:26;102776.00;;;37.53;26.41
51460;BME280;37534;39.772;2.718;2024-02-04T12:47:53;102762.06;;;37.25;26.24
51460;BME280;37534;39.772;2.718;2024-02-04T12:50:19;102764.34;;;37.94;26.27
51460;BME280;37534;39.772;2.718;2024-02-04T12:52:50;102751.59;;;37.79;25.78
51460;BME280;37534;39.772;2.718;2024-02-04T12:55:26;102754.78;;;37.83;25.85
51460;BME280;37534;39.772;2.718;2024-02-04T12:58:11;102737.97;;;37.07;26.58